sensor_id;sensor_type;location;lat;lon;timestamp;P1;durP1;ratioP1;P2;durP2;ratioP2
34373;SDS011;20637;55.770;37.592;2022-09-09T00:03:44;3.08;;;1.40;;
34373;SDS011;20637;55.770;37.592;2022-09-09T00:06:20;2.10;;;1.30;;
34373;SDS011;20637;55.770;37.592;2022-09-09T00:11:48;1.90;;;1.27;;
34373;SDS011;20637;55.770;37.592;2022-09-09T00:14:32;3.58;;;1.58;;
34373;SDS011;20637;55.770;37.592;2022-09-09T00:17:08;1.60;;;1.27;;
34373;SDS011;20637;55.770;37.592;2022-09-09T00:19:43;1.90;;;1.58;;
34373;SDS011;20637;55.770;37.592;2022-09-09T00:22:17;2.45;;;1.30;;
34373;SDS011;20637;55.770;37.592;2022-09-09T00:24:44;1.45;;;1.35;;
34373;SDS011;20637;55.770;37.592;2022-09-09T00:27:25;4.07;;;2.72;;
34373;SDS011;20637;55.770;37.592;2022-09-09T00:30:22;1.98;;;1.30;;
34373;SDS011;20637;55.770;37.592;2022-09-09T00:32:54;2.20;;;1.80;;
34373;SDS011;20637;55.770;37.592;2022-09-09T00:35:27;1.65;;;1.50;;
34373;SDS011;20637;55.770;37.592;2022-09-09T00:37:59;1.52;;;1.42;;
34373;SDS011;20637;55.770;37.592;2022-09-09T00:40:32;1.92;;;1.42;;
34373;SDS011;20637;55.770;37.592;2022-09-09T00:48:23;2.25;;;1.83;;
34373;SDS011;20637;55.770;37.592;2022-09-09T01:02:26;2.17;;;1.45;;
34373;SDS011;20637;55.770;37.592;2022-09-09T01:04:53;2.60;;;1.98;;
34373;SDS011;20637;55.770;37.592;2022-09-09T01:07:20;2.03;;;1.40;;
34373;SDS011;20637;55.770;37.592;2022-09-09T01:09:56;2.30;;;1.58;;
34373;SDS011;20637;55.770;37.592;2022-09-09T01:15:23;3.63;;;1.92;;
34373;SDS011;20637;55.770;37.592;2022-09-09T01:18:02;3.15;;;1.85;;
34373;SDS011;20637;55.770;37.592;2022-09-09T01:28:53;2.65;;;2.20;;
34373;SDS011;20637;55.770;37.592;2022-09-09T01:31:32;1.80;;;1.60;;
34373;SDS011;20637;55.770;37.592;2022-09-09T01:34:07;2.50;;;1.60;;
34373;SDS011;20637;55.770;37.592;2022-09-09T01:36:56;4.22;;;2.72;;
34373;SDS011;20637;55.770;37.592;2022-09-09T01:39:23;1.70;;;1.50;;
34373;SDS011;20637;55.770;37.592;2022-09-09T01:41:57;2.05;;;1.60;;
34373;SDS011;20637;55.770;37.592;2022-09-09T01:44:23;3.95;;;1.63;;
34373;SDS011;20637;55.770;37.592;2022-09-09T01:46:50;4.20;;;1.77;;
34373;SDS011;20637;55.770;37.592;2022-09-09T01:49:19;3.30;;;1.40;;
34373;SDS011;20637;55.770;37.592;2022-09-09T01:51:46;2.00;;;1.80;;
34373;SDS011;20637;55.770;37.592;2022-09-09T01:54:19;1.70;;;1.60;;
34373;SDS011;20637;55.770;37.592;2022-09-09T01:56:55;1.90;;;1.58;;
34373;SDS011;20637;55.770;37.592;2022-09-09T02:02:24;2.25;;;1.60;;
34373;SDS011;20637;55.770;37.592;2022-09-09T02:05:52;1.50;;;1.40;;
34373;SDS011;20637;55.770;37.592;2022-09-09T02:08:07;2.58;;;1.63;;
34373;SDS011;20637;55.770;37.592;2022-09-09T02:11:02;1.80;;;1.52;;
34373;SDS011;20637;55.770;37.592;2022-09-09T02:13:41;1.98;;;1.60;;
34373;SDS011;20637;55.770;37.592;2022-09-09T02:16:26;3.80;;;1.70;;
34373;SDS011;20637;55.770;37.592;2022-09-09T02:19:06;2.40;;;1.30;;
34373;SDS011;20637;55.770;37.592;2022-09-09T02:21:50;3.17;;;1.52;;
34373;SDS011;20637;55.770;37.592;2022-09-09T02:24:18;2.13;;;1.40;;
34373;SDS011;20637;55.770;37.592;2022-09-09T02:26:52;1.52;;;1.42;;
34373;SDS011;20637;55.770;37.592;2022-09-09T02:29:22;3.08;;;1.60;;
34373;SDS011;20637;55.770;37.592;2022-09-09T02:31:52;3.15;;;1.65;;
34373;SDS011;20637;55.770;37.592;2022-09-09T02:34:26;2.65;;;1.45;;
34373;SDS011;20637;55.770;37.592;2022-09-09T02:36:54;2.00;;;1.42;;
34373;SDS011;20637;55.770;37.592;2022-09-09T02:39:22;3.83;;;1.67;;
34373;SDS011;20637;55.770;37.592;2022-09-09T02:41:50;1.70;;;1.35;;
34373;SDS011;20637;55.770;37.592;2022-09-09T02:44:17;1.67;;;1.58;;
34373;SDS011;20637;55.770;37.592;2022-09-09T02:55:16;2.55;;;2.22;;
34373;SDS011;20637;55.770;37.592;2022-09-09T02:57:51;3.45;;;2.25;;
34373;SDS011;20637;55.770;37.592;2022-09-09T03:00:25;2.88;;;2.58;;
34373;SDS011;20637;55.770;37.592;2022-09-09T03:02:56;3.08;;;2.83;;
34373;SDS011;20637;55.770;37.592;2022-09-09T03:05:21;4.38;;;3.70;;
34373;SDS011;20637;55.770;37.592;2022-09-09T03:07:48;6.70;;;3.95;;
34373;SDS011;20637;55.770;37.592;2022-09-09T03:10:16;4.00;;;3.55;;
34373;SDS011;20637;55.770;37.592;2022-09-09T03:12:42;6.70;;;3.70;;
34373;SDS011;20637;55.770;37.592;2022-09-09T03:15:09;4.38;;;3.88;;
34373;SDS011;20637;55.770;37.592;2022-09-09T03:17:36;4.53;;;3.90;;
34373;SDS011;20637;55.770;37.592;2022-09-09T03:20:05;6.13;;;4.20;;
34373;SDS011;20637;55.770;37.592;2022-09-09T03:22:32;5.43;;;4.03;;
34373;SDS011;20637;55.770;37.592;2022-09-09T03:24:59;4.35;;;3.80;;
34373;SDS011;20637;55.770;37.592;2022-09-09T03:27:28;5.05;;;3.15;;
34373;SDS011;20637;55.770;37.592;2022-09-09T03:29:54;6.55;;;3.88;;
34373;SDS011;20637;55.770;37.592;2022-09-09T03:32:22;4.40;;;3.45;;
34373;SDS011;20637;55.770;37.592;2022-09-09T03:34:52;5.40;;;2.53;;
34373;SDS011;20637;55.770;37.592;2022-09-09T03:37:18;6.22;;;3.38;;
34373;SDS011;20637;55.770;37.592;2022-09-09T03:39:46;5.47;;;3.10;;
34373;SDS011;20637;55.770;37.592;2022-09-09T03:42:14;5.40;;;3.00;;
34373;SDS011;20637;55.770;37.592;2022-09-09T03:44:44;5.80;;;3.10;;
34373;SDS011;20637;55.770;37.592;2022-09-09T03:47:19;3.40;;;2.95;;
34373;SDS011;20637;55.770;37.592;2022-09-09T03:49:48;3.60;;;2.63;;
34373;SDS011;20637;55.770;37.592;2022-09-09T03:52:14;3.47;;;2.30;;
34373;SDS011;20637;55.770;37.592;2022-09-09T03:54:40;3.78;;;2.50;;
34373;SDS011;20637;55.770;37.592;2022-09-09T03:57:08;4.40;;;2.45;;
34373;SDS011;20637;55.770;37.592;2022-09-09T03:59:37;3.08;;;2.25;;
34373;SDS011;20637;55.770;37.592;2022-09-09T04:02:03;4.20;;;2.15;;
34373;SDS011;20637;55.770;37.592;2022-09-09T04:04:29;4.57;;;2.03;;
34373;SDS011;20637;55.770;37.592;2022-09-09T04:06:55;3.60;;;2.42;;
34373;SDS011;20637;55.770;37.592;2022-09-09T04:09:22;6.53;;;2.35;;
34373;SDS011;20637;55.770;37.592;2022-09-09T04:11:49;4.07;;;2.60;;
34373;SDS011;20637;55.770;37.592;2022-09-09T04:14:15;4.28;;;2.58;;
34373;SDS011;20637;55.770;37.592;2022-09-09T04:16:41;3.40;;;2.90;;
34373;SDS011;20637;55.770;37.592;2022-09-09T04:19:12;3.75;;;2.00;;
34373;SDS011;20637;55.770;37.592;2022-09-09T04:21:40;4.97;;;2.88;;
34373;SDS011;20637;55.770;37.592;2022-09-09T04:24:07;2.83;;;1.83;;
34373;SDS011;20637;55.770;37.592;2022-09-09T04:26:33;5.00;;;2.65;;
34373;SDS011;20637;55.770;37.592;2022-09-09T04:29:00;3.72;;;1.92;;
34373;SDS011;20637;55.770;37.592;2022-09-09T04:31:27;2.83;;;1.92;;
34373;SDS011;20637;55.770;37.592;2022-09-09T04:33:55;4.55;;;1.80;;
34373;SDS011;20637;55.770;37.592;2022-09-09T04:36:21;3.38;;;2.10;;
34373;SDS011;20637;55.770;37.592;2022-09-09T04:38:48;4.13;;;2.47;;
34373;SDS011;20637;55.770;37.592;2022-09-09T04:41:14;1.55;;;1.42;;
34373;SDS011;20637;55.770;37.592;2022-09-09T04:43:43;3.20;;;1.73;;
34373;SDS011;20637;55.770;37.592;2022-09-09T04:46:09;2.58;;;1.77;;
34373;SDS011;20637;55.770;37.592;2022-09-09T04:48:35;5.88;;;1.98;;
34373;SDS011;20637;55.770;37.592;2022-09-09T04:51:06;3.92;;;2.20;;
34373;SDS011;20637;55.770;37.592;2022-09-09T04:53:35;2.47;;;1.48;;
34373;SDS011;20637;55.770;37.592;2022-09-09T04:56:05;4.10;;;1.70;;
34373;SDS011;20637;55.770;37.592;2022-09-09T04:58:39;5.70;;;2.25;;
34373;SDS011;20637;55.770;37.592;2022-09-09T05:01:13;2.75;;;2.30;;
34373;SDS011;20637;55.770;37.592;2022-09-09T05:03:44;2.58;;;1.90;;
34373;SDS011;20637;55.770;37.592;2022-09-09T05:06:13;3.13;;;2.13;;
34373;SDS011;20637;55.770;37.592;2022-09-09T05:08:40;3.58;;;1.90;;
34373;SDS011;20637;55.770;37.592;2022-09-09T05:11:18;3.00;;;1.80;;
34373;SDS011;20637;55.770;37.592;2022-09-09T05:13:45;3.00;;;1.90;;
34373;SDS011;20637;55.770;37.592;2022-09-09T05:16:12;4.50;;;1.70;;
34373;SDS011;20637;55.770;37.592;2022-09-09T05:18:38;2.78;;;1.40;;
34373;SDS011;20637;55.770;37.592;2022-09-09T05:21:06;2.40;;;1.65;;
34373;SDS011;20637;55.770;37.592;2022-09-09T05:23:33;3.55;;;1.60;;
34373;SDS011;20637;55.770;37.592;2022-09-09T05:25:59;4.18;;;1.73;;
34373;SDS011;20637;55.770;37.592;2022-09-09T05:28:27;2.63;;;1.50;;
34373;SDS011;20637;55.770;37.592;2022-09-09T05:30:57;5.00;;;1.70;;
34373;SDS011;20637;55.770;37.592;2022-09-09T05:33:35;1.65;;;1.35;;
34373;SDS011;20637;55.770;37.592;2022-09-09T05:36:03;2.70;;;1.65;;
34373;SDS011;20637;55.770;37.592;2022-09-09T05:38:32;3.03;;;1.40;;
34373;SDS011;20637;55.770;37.592;2022-09-09T05:40:59;1.58;;;1.10;;
34373;SDS011;20637;55.770;37.592;2022-09-09T05:43:25;3.25;;;1.30;;
34373;SDS011;20637;55.770;37.592;2022-09-09T05:46:03;2.22;;;1.33;;
34373;SDS011;20637;55.770;37.592;2022-09-09T05:48:30;3.58;;;1.58;;
34373;SDS011;20637;55.770;37.592;2022-09-09T05:50:58;3.95;;;1.70;;
34373;SDS011;20637;55.770;37.592;2022-09-09T05:53:28;2.35;;;1.52;;
34373;SDS011;20637;55.770;37.592;2022-09-09T05:56:05;5.00;;;1.88;;
34373;SDS011;20637;55.770;37.592;2022-09-09T05:58:34;4.03;;;1.33;;
34373;SDS011;20637;55.770;37.592;2022-09-09T06:01:02;2.70;;;1.13;;
34373;SDS011;20637;55.770;37.592;2022-09-09T06:03:27;6.18;;;1.42;;
34373;SDS011;20637;55.770;37.592;2022-09-09T06:05:57;3.10;;;1.10;;
34373;SDS011;20637;55.770;37.592;2022-09-09T06:10:50;4.13;;;1.60;;
34373;SDS011;20637;55.770;37.592;2022-09-09T06:13:17;0.98;;;0.90;;
34373;SDS011;20637;55.770;37.592;2022-09-09T06:15:52;3.72;;;0.80;;
34373;SDS011;20637;55.770;37.592;2022-09-09T06:18:18;1.98;;;0.90;;
34373;SDS011;20637;55.770;37.592;2022-09-09T06:21:00;4.30;;;1.13;;
34373;SDS011;20637;55.770;37.592;2022-09-09T06:23:30;1.55;;;0.85;;
34373;SDS011;20637;55.770;37.592;2022-09-09T06:28:51;2.28;;;1.08;;
34373;SDS011;20637;55.770;37.592;2022-09-09T06:31:19;3.65;;;1.02;;
34373;SDS011;20637;55.770;37.592;2022-09-09T06:33:48;2.38;;;1.48;;
34373;SDS011;20637;55.770;37.592;2022-09-09T06:36:20;1.15;;;0.80;;
34373;SDS011;20637;55.770;37.592;2022-09-09T06:38:48;0.52;;;0.50;;
34373;SDS011;20637;55.770;37.592;2022-09-09T06:41:15;2.97;;;0.60;;
34373;SDS011;20637;55.770;37.592;2022-09-09T06:43:45;1.33;;;0.70;;
34373;SDS011;20637;55.770;37.592;2022-09-09T06:48:39;1.48;;;0.88;;
34373;SDS011;20637;55.770;37.592;2022-09-09T06:51:11;1.42;;;0.90;;
34373;SDS011;20637;55.770;37.592;2022-09-09T06:53:40;0.70;;;0.60;;
34373;SDS011;20637;55.770;37.592;2022-09-09T06:58:58;1.00;;;0.70;;
34373;SDS011;20637;55.770;37.592;2022-09-09T07:01:29;3.05;;;0.75;;
34373;SDS011;20637;55.770;37.592;2022-09-09T07:06:28;3.33;;;0.80;;
34373;SDS011;20637;55.770;37.592;2022-09-09T07:09:01;2.65;;;0.98;;
34373;SDS011;20637;55.770;37.592;2022-09-09T07:11:36;3.38;;;0.70;;
34373;SDS011;20637;55.770;37.592;2022-09-09T07:14:04;1.33;;;0.68;;
34373;SDS011;20637;55.770;37.592;2022-09-09T07:16:30;4.03;;;1.58;;
34373;SDS011;20637;55.770;37.592;2022-09-09T07:18:58;1.52;;;0.70;;
34373;SDS011;20637;55.770;37.592;2022-09-09T07:21:27;0.93;;;0.68;;
34373;SDS011;20637;55.770;37.592;2022-09-09T07:23:54;2.47;;;1.20;;
34373;SDS011;20637;55.770;37.592;2022-09-09T07:26:25;2.75;;;0.63;;
34373;SDS011;20637;55.770;37.592;2022-09-09T07:28:53;2.25;;;0.68;;
34373;SDS011;20637;55.770;37.592;2022-09-09T07:31:26;1.20;;;0.60;;
34373;SDS011;20637;55.770;37.592;2022-09-09T07:33:57;2.58;;;1.75;;
34373;SDS011;20637;55.770;37.592;2022-09-09T07:36:27;1.15;;;0.80;;
34373;SDS011;20637;55.770;37.592;2022-09-09T07:38:56;2.33;;;1.38;;
34373;SDS011;20637;55.770;37.592;2022-09-09T07:44:07;6.05;;;1.10;;
34373;SDS011;20637;55.770;37.592;2022-09-09T07:46:39;6.53;;;2.00;;
34373;SDS011;20637;55.770;37.592;2022-09-09T07:49:08;2.80;;;2.53;;
34373;SDS011;20637;55.770;37.592;2022-09-09T07:51:40;2.08;;;1.67;;
34373;SDS011;20637;55.770;37.592;2022-09-09T07:54:09;2.67;;;1.10;;
34373;SDS011;20637;55.770;37.592;2022-09-09T07:56:39;2.75;;;0.80;;
34373;SDS011;20637;55.770;37.592;2022-09-09T07:59:05;1.75;;;0.70;;
34373;SDS011;20637;55.770;37.592;2022-09-09T08:04:03;2.45;;;0.88;;
34373;SDS011;20637;55.770;37.592;2022-09-09T08:06:35;2.05;;;0.60;;
34373;SDS011;20637;55.770;37.592;2022-09-09T08:09:03;0.65;;;0.40;;
34373;SDS011;20637;55.770;37.592;2022-09-09T08:11:31;0.60;;;0.40;;
34373;SDS011;20637;55.770;37.592;2022-09-09T08:13:59;2.22;;;0.88;;
34373;SDS011;20637;55.770;37.592;2022-09-09T08:16:27;1.90;;;0.70;;
34373;SDS011;20637;55.770;37.592;2022-09-09T08:18:56;2.97;;;1.00;;
34373;SDS011;20637;55.770;37.592;2022-09-09T08:21:24;2.15;;;0.77;;
34373;SDS011;20637;55.770;37.592;2022-09-09T08:23:57;1.15;;;0.93;;
34373;SDS011;20637;55.770;37.592;2022-09-09T08:26:24;0.85;;;0.50;;
34373;SDS011;20637;55.770;37.592;2022-09-09T08:28:51;3.42;;;0.85;;
34373;SDS011;20637;55.770;37.592;2022-09-09T08:31:23;1.13;;;0.43;;
34373;SDS011;20637;55.770;37.592;2022-09-09T08:33:54;1.17;;;0.63;;
34373;SDS011;20637;55.770;37.592;2022-09-09T08:36:21;2.67;;;0.40;;
34373;SDS011;20637;55.770;37.592;2022-09-09T08:38:49;2.60;;;1.15;;
34373;SDS011;20637;55.770;37.592;2022-09-09T08:55:56;1.95;;;0.60;;
34373;SDS011;20637;55.770;37.592;2022-09-09T08:58:35;3.22;;;0.60;;
34373;SDS011;20637;55.770;37.592;2022-09-09T09:04:00;1.77;;;0.50;;
34373;SDS011;20637;55.770;37.592;2022-09-09T09:06:42;1.85;;;0.60;;
34373;SDS011;20637;55.770;37.592;2022-09-09T09:12:16;3.00;;;0.90;;
34373;SDS011;20637;55.770;37.592;2022-09-09T09:14:46;0.68;;;0.40;;
34373;SDS011;20637;55.770;37.592;2022-09-09T09:19:42;2.78;;;0.70;;
34373;SDS011;20637;55.770;37.592;2022-09-09T09:30:44;2.13;;;0.80;;
34373;SDS011;20637;55.770;37.592;2022-09-09T09:33:33;0.90;;;0.60;;
34373;SDS011;20637;55.770;37.592;2022-09-09T09:36:10;1.92;;;0.60;;
34373;SDS011;20637;55.770;37.592;2022-09-09T09:38:39;3.65;;;0.60;;
34373;SDS011;20637;55.770;37.592;2022-09-09T09:41:05;2.55;;;0.70;;
34373;SDS011;20637;55.770;37.592;2022-09-09T09:43:32;2.47;;;0.65;;
34373;SDS011;20637;55.770;37.592;2022-09-09T09:46:17;4.72;;;1.45;;
34373;SDS011;20637;55.770;37.592;2022-09-09T09:51:29;2.75;;;0.50;;
34373;SDS011;20637;55.770;37.592;2022-09-09T09:56:55;1.33;;;0.68;;
34373;SDS011;20637;55.770;37.592;2022-09-09T09:59:33;1.00;;;0.70;;
34373;SDS011;20637;55.770;37.592;2022-09-09T10:04:38;5.65;;;0.68;;
34373;SDS011;20637;55.770;37.592;2022-09-09T10:07:37;2.70;;;1.70;;
34373;SDS011;20637;55.770;37.592;2022-09-09T10:09:58;4.75;;;2.55;;
34373;SDS011;20637;55.770;37.592;2022-09-09T10:15:50;1.25;;;0.90;;
34373;SDS011;20637;55.770;37.592;2022-09-09T10:34:57;1.15;;;0.90;;
34373;SDS011;20637;55.770;37.592;2022-09-09T10:42:51;0.93;;;0.60;;
34373;SDS011;20637;55.770;37.592;2022-09-09T10:45:21;1.88;;;0.70;;
34373;SDS011;20637;55.770;37.592;2022-09-09T10:50:53;1.08;;;0.65;;
34373;SDS011;20637;55.770;37.592;2022-09-09T10:53:37;1.73;;;0.50;;
34373;SDS011;20637;55.770;37.592;2022-09-09T10:56:15;1.40;;;0.60;;
34373;SDS011;20637;55.770;37.592;2022-09-09T10:58:46;1.50;;;0.60;;
34373;SDS011;20637;55.770;37.592;2022-09-09T11:01:27;0.52;;;0.40;;
34373;SDS011;20637;55.770;37.592;2022-09-09T11:03:59;1.58;;;0.50;;
34373;SDS011;20637;55.770;37.592;2022-09-09T11:06:36;0.85;;;0.65;;
34373;SDS011;20637;55.770;37.592;2022-09-09T11:09:08;2.10;;;0.90;;
34373;SDS011;20637;55.770;37.592;2022-09-09T11:11:45;2.40;;;0.82;;
34373;SDS011;20637;55.770;37.592;2022-09-09T11:14:21;2.85;;;1.52;;
34373;SDS011;20637;55.770;37.592;2022-09-09T11:22:00;2.40;;;1.20;;
34373;SDS011;20637;55.770;37.592;2022-09-09T11:24:32;3.25;;;2.15;;
34373;SDS011;20637;55.770;37.592;2022-09-09T11:32:53;2.13;;;1.33;;
34373;SDS011;20637;55.770;37.592;2022-09-09T11:40:38;2.03;;;0.93;;
34373;SDS011;20637;55.770;37.592;2022-09-09T11:43:18;0.88;;;0.80;;
34373;SDS011;20637;55.770;37.592;2022-09-09T11:45:51;0.85;;;0.55;;
34373;SDS011;20637;55.770;37.592;2022-09-09T11:53:50;1.50;;;0.80;;
34373;SDS011;20637;55.770;37.592;2022-09-09T11:56:28;2.03;;;1.45;;
34373;SDS011;20637;55.770;37.592;2022-09-09T11:59:06;1.80;;;1.10;;
34373;SDS011;20637;55.770;37.592;2022-09-09T12:01:45;1.60;;;0.75;;
34373;SDS011;20637;55.770;37.592;2022-09-09T12:06:57;1.48;;;1.38;;
34373;SDS011;20637;55.770;37.592;2022-09-09T12:12:28;1.13;;;0.95;;
34373;SDS011;20637;55.770;37.592;2022-09-09T12:17:29;2.42;;;1.67;;
34373;SDS011;20637;55.770;37.592;2022-09-09T12:20:00;1.00;;;0.75;;
34373;SDS011;20637;55.770;37.592;2022-09-09T12:22:35;1.48;;;0.82;;
34373;SDS011;20637;55.770;37.592;2022-09-09T12:27:41;1.00;;;0.80;;
34373;SDS011;20637;55.770;37.592;2022-09-09T12:30:18;1.67;;;0.98;;
34373;SDS011;20637;55.770;37.592;2022-09-09T12:32:46;3.15;;;1.23;;
34373;SDS011;20637;55.770;37.592;2022-09-09T12:35:14;2.78;;;1.20;;
34373;SDS011;20637;55.770;37.592;2022-09-09T12:37:56;3.10;;;1.48;;
34373;SDS011;20637;55.770;37.592;2022-09-09T12:40:31;2.17;;;1.55;;
34373;SDS011;20637;55.770;37.592;2022-09-09T12:43:01;2.50;;;1.52;;
34373;SDS011;20637;55.770;37.592;2022-09-09T12:45:40;3.05;;;1.05;;
34373;SDS011;20637;55.770;37.592;2022-09-09T12:48:07;4.45;;;1.60;;
34373;SDS011;20637;55.770;37.592;2022-09-09T12:50:44;1.80;;;0.90;;
34373;SDS011;20637;55.770;37.592;2022-09-09T12:55:59;2.35;;;1.20;;
34373;SDS011;20637;55.770;37.592;2022-09-09T12:58:33;1.17;;;0.93;;
34373;SDS011;20637;55.770;37.592;2022-09-09T13:01:02;3.72;;;1.40;;
34373;SDS011;20637;55.770;37.592;2022-09-09T13:03:32;1.02;;;0.70;;
34373;SDS011;20637;55.770;37.592;2022-09-09T13:06:12;1.48;;;0.93;;
34373;SDS011;20637;55.770;37.592;2022-09-09T13:08:42;1.42;;;0.63;;
34373;SDS011;20637;55.770;37.592;2022-09-09T13:11:22;1.00;;;0.52;;
34373;SDS011;20637;55.770;37.592;2022-09-09T13:13:52;1.85;;;1.00;;
34373;SDS011;20637;55.770;37.592;2022-09-09T13:16:31;1.30;;;0.80;;
34373;SDS011;20637;55.770;37.592;2022-09-09T13:19:06;4.85;;;0.80;;
34373;SDS011;20637;55.770;37.592;2022-09-09T13:21:36;1.50;;;0.65;;
34373;SDS011;20637;55.770;37.592;2022-09-09T13:24:23;1.55;;;0.70;;
34373;SDS011;20637;55.770;37.592;2022-09-09T13:26:59;1.55;;;0.60;;
34373;SDS011;20637;55.770;37.592;2022-09-09T13:29:30;1.40;;;0.68;;
34373;SDS011;20637;55.770;37.592;2022-09-09T13:32:12;0.82;;;0.65;;
34373;SDS011;20637;55.770;37.592;2022-09-09T13:34:50;1.20;;;0.60;;
34373;SDS011;20637;55.770;37.592;2022-09-09T13:40:06;2.15;;;0.80;;
34373;SDS011;20637;55.770;37.592;2022-09-09T13:42:44;1.83;;;0.55;;
34373;SDS011;20637;55.770;37.592;2022-09-09T13:45:20;1.15;;;0.52;;
34373;SDS011;20637;55.770;37.592;2022-09-09T13:47:48;2.20;;;1.05;;
34373;SDS011;20637;55.770;37.592;2022-09-09T13:50:18;2.30;;;1.00;;
34373;SDS011;20637;55.770;37.592;2022-09-09T13:52:52;3.70;;;0.70;;
34373;SDS011;20637;55.770;37.592;2022-09-09T13:57:55;1.35;;;0.70;;
34373;SDS011;20637;55.770;37.592;2022-09-09T14:00:23;5.45;;;1.48;;
34373;SDS011;20637;55.770;37.592;2022-09-09T14:02:50;1.30;;;0.70;;
34373;SDS011;20637;55.770;37.592;2022-09-09T14:05:16;1.63;;;0.80;;
34373;SDS011;20637;55.770;37.592;2022-09-09T14:07:43;2.50;;;0.90;;
34373;SDS011;20637;55.770;37.592;2022-09-09T14:10:11;8.35;;;1.40;;
34373;SDS011;20637;55.770;37.592;2022-09-09T14:12:37;4.72;;;0.80;;
34373;SDS011;20637;55.770;37.592;2022-09-09T14:15:04;2.72;;;1.00;;
34373;SDS011;20637;55.770;37.592;2022-09-09T14:17:31;2.70;;;0.93;;
34373;SDS011;20637;55.770;37.592;2022-09-09T14:19:57;2.08;;;1.20;;
34373;SDS011;20637;55.770;37.592;2022-09-09T14:22:23;2.55;;;0.90;;
34373;SDS011;20637;55.770;37.592;2022-09-09T14:24:50;3.95;;;1.83;;
34373;SDS011;20637;55.770;37.592;2022-09-09T14:27:16;3.03;;;1.05;;
34373;SDS011;20637;55.770;37.592;2022-09-09T14:29:41;1.60;;;1.20;;
34373;SDS011;20637;55.770;37.592;2022-09-09T14:32:09;2.17;;;1.10;;
34373;SDS011;20637;55.770;37.592;2022-09-09T14:34:34;2.78;;;0.90;;
34373;SDS011;20637;55.770;37.592;2022-09-09T14:37:00;1.63;;;0.93;;
34373;SDS011;20637;55.770;37.592;2022-09-09T14:39:26;1.48;;;0.65;;
34373;SDS011;20637;55.770;37.592;2022-09-09T14:41:52;1.15;;;0.68;;
34373;SDS011;20637;55.770;37.592;2022-09-09T14:44:17;1.17;;;0.60;;
34373;SDS011;20637;55.770;37.592;2022-09-09T14:46:43;2.03;;;1.05;;
34373;SDS011;20637;55.770;37.592;2022-09-09T14:49:08;2.85;;;1.55;;
34373;SDS011;20637;55.770;37.592;2022-09-09T14:51:35;2.05;;;1.10;;
34373;SDS011;20637;55.770;37.592;2022-09-09T14:54:01;1.83;;;1.20;;
34373;SDS011;20637;55.770;37.592;2022-09-09T14:56:28;1.25;;;1.00;;
34373;SDS011;20637;55.770;37.592;2022-09-09T14:58:56;3.63;;;1.77;;
34373;SDS011;20637;55.770;37.592;2022-09-09T15:01:24;3.08;;;1.40;;
34373;SDS011;20637;55.770;37.592;2022-09-09T15:03:53;2.00;;;1.10;;
34373;SDS011;20637;55.770;37.592;2022-09-09T15:06:24;1.52;;;1.20;;
34373;SDS011;20637;55.770;37.592;2022-09-09T15:08:51;2.60;;;1.35;;
34373;SDS011;20637;55.770;37.592;2022-09-09T15:11:18;2.58;;;1.85;;
34373;SDS011;20637;55.770;37.592;2022-09-09T15:13:45;2.78;;;1.73;;
34373;SDS011;20637;55.770;37.592;2022-09-09T15:16:15;7.78;;;3.28;;
34373;SDS011;20637;55.770;37.592;2022-09-09T15:18:42;5.80;;;2.28;;
34373;SDS011;20637;55.770;37.592;2022-09-09T15:21:10;2.65;;;1.65;;
34373;SDS011;20637;55.770;37.592;2022-09-09T15:23:40;4.57;;;1.67;;
34373;SDS011;20637;55.770;37.592;2022-09-09T15:26:06;6.43;;;2.10;;
34373;SDS011;20637;55.770;37.592;2022-09-09T15:28:33;4.35;;;2.03;;
34373;SDS011;20637;55.770;37.592;2022-09-09T15:31:07;2.95;;;1.40;;
34373;SDS011;20637;55.770;37.592;2022-09-09T15:33:40;2.88;;;1.55;;
34373;SDS011;20637;55.770;37.592;2022-09-09T15:36:16;1.77;;;1.33;;
34373;SDS011;20637;55.770;37.592;2022-09-09T15:38:44;3.78;;;1.60;;
34373;SDS011;20637;55.770;37.592;2022-09-09T15:41:10;3.38;;;1.48;;
34373;SDS011;20637;55.770;37.592;2022-09-09T15:43:37;3.55;;;1.65;;
34373;SDS011;20637;55.770;37.592;2022-09-09T15:48:56;2.50;;;1.20;;
34373;SDS011;20637;55.770;37.592;2022-09-09T15:51:44;4.32;;;2.20;;
34373;SDS011;20637;55.770;37.592;2022-09-09T15:54:12;2.50;;;1.60;;
34373;SDS011;20637;55.770;37.592;2022-09-09T15:56:41;3.83;;;1.83;;
34373;SDS011;20637;55.770;37.592;2022-09-09T15:59:07;2.72;;;1.90;;
34373;SDS011;20637;55.770;37.592;2022-09-09T16:01:33;2.42;;;1.92;;
34373;SDS011;20637;55.770;37.592;2022-09-09T16:04:00;2.67;;;1.25;;
34373;SDS011;20637;55.770;37.592;2022-09-09T16:06:26;4.43;;;1.65;;
34373;SDS011;20637;55.770;37.592;2022-09-09T16:08:53;3.78;;;2.60;;
34373;SDS011;20637;55.770;37.592;2022-09-09T16:11:21;3.42;;;2.45;;
34373;SDS011;20637;55.770;37.592;2022-09-09T16:13:49;6.47;;;2.53;;
34373;SDS011;20637;55.770;37.592;2022-09-09T16:16:18;3.58;;;2.25;;
34373;SDS011;20637;55.770;37.592;2022-09-09T16:18:47;7.40;;;2.50;;
34373;SDS011;20637;55.770;37.592;2022-09-09T16:21:19;4.47;;;2.60;;
34373;SDS011;20637;55.770;37.592;2022-09-09T16:23:49;4.47;;;2.40;;
34373;SDS011;20637;55.770;37.592;2022-09-09T16:26:21;5.00;;;2.22;;
34373;SDS011;20637;55.770;37.592;2022-09-09T16:28:48;3.88;;;2.13;;
34373;SDS011;20637;55.770;37.592;2022-09-09T16:31:18;5.72;;;2.40;;
34373;SDS011;20637;55.770;37.592;2022-09-09T16:33:47;7.00;;;2.72;;
34373;SDS011;20637;55.770;37.592;2022-09-09T16:36:16;4.88;;;2.85;;
34373;SDS011;20637;55.770;37.592;2022-09-09T16:38:44;4.22;;;2.42;;
34373;SDS011;20637;55.770;37.592;2022-09-09T16:41:11;18.73;;;3.92;;
34373;SDS011;20637;55.770;37.592;2022-09-09T16:43:37;4.65;;;3.65;;
34373;SDS011;20637;55.770;37.592;2022-09-09T16:46:25;5.13;;;2.53;;
34373;SDS011;20637;55.770;37.592;2022-09-09T16:48:50;4.70;;;2.90;;
34373;SDS011;20637;55.770;37.592;2022-09-09T16:51:17;5.40;;;3.47;;
34373;SDS011;20637;55.770;37.592;2022-09-09T16:53:49;9.32;;;4.20;;
34373;SDS011;20637;55.770;37.592;2022-09-09T16:56:16;5.72;;;4.20;;
34373;SDS011;20637;55.770;37.592;2022-09-09T16:58:43;5.70;;;3.83;;
34373;SDS011;20637;55.770;37.592;2022-09-09T17:01:15;7.25;;;3.63;;
34373;SDS011;20637;55.770;37.592;2022-09-09T17:03:41;5.78;;;3.72;;
34373;SDS011;20637;55.770;37.592;2022-09-09T17:06:11;4.35;;;3.28;;
34373;SDS011;20637;55.770;37.592;2022-09-09T17:08:38;6.32;;;3.20;;
34373;SDS011;20637;55.770;37.592;2022-09-09T17:11:11;5.35;;;3.83;;
34373;SDS011;20637;55.770;37.592;2022-09-09T17:13:41;9.35;;;4.07;;
34373;SDS011;20637;55.770;37.592;2022-09-09T17:16:08;4.50;;;3.42;;
34373;SDS011;20637;55.770;37.592;2022-09-09T17:18:34;6.45;;;4.20;;
34373;SDS011;20637;55.770;37.592;2022-09-09T17:21:07;5.90;;;3.03;;
34373;SDS011;20637;55.770;37.592;2022-09-09T17:23:40;5.32;;;3.67;;
34373;SDS011;20637;55.770;37.592;2022-09-09T17:26:07;5.07;;;3.13;;
34373;SDS011;20637;55.770;37.592;2022-09-09T17:28:36;5.38;;;3.60;;
34373;SDS011;20637;55.770;37.592;2022-09-09T17:31:04;5.95;;;2.85;;
34373;SDS011;20637;55.770;37.592;2022-09-09T17:33:35;7.80;;;3.30;;
34373;SDS011;20637;55.770;37.592;2022-09-09T17:36:05;6.75;;;4.10;;
34373;SDS011;20637;55.770;37.592;2022-09-09T17:38:33;6.43;;;3.20;;
34373;SDS011;20637;55.770;37.592;2022-09-09T17:41:06;6.25;;;3.50;;
34373;SDS011;20637;55.770;37.592;2022-09-09T17:43:34;5.10;;;2.95;;
34373;SDS011;20637;55.770;37.592;2022-09-09T17:46:07;6.53;;;3.67;;
34373;SDS011;20637;55.770;37.592;2022-09-09T17:48:34;5.60;;;3.50;;